Wind From: 11-12-2017 06:00 Until: 12-12-2017 06:00 warning for: Wind Level: Orange info button

Power and phone distribution networks may be disrupted for relatively long periods., Roofs and chimneys can be damaged. , Tree branches may break. , Vehicles can be deported. , Traffic may be disrupted, particularly on secondary roads in forest areas. Limit your trips. , Limit your speed in highway driving, especially if you drive a vehicle or hitch sensitive to wind. , Do not go for walks in forests or along the coast., In town, be vigilant against possible falling objects., Do not work on roofs and do not touch any electrical line fallen on the ground., Store or secure sensitive objects to wind or likely to be damaged., Always install power generators outside buildings. 


Meteo18 Weather Cam more information Meteo18 Weather Cam


Thunder radar more information blitzortung!


Rain radar more information rain snow radar


Visit our other weather sites:

Template documentation
and downloads

And another site



Weather Underground History page Text

Daily Summary for April 30, 2017 Units:  Both    English   Metric
« Previous Day
Next Day »
Daily Weekly Monthly Yearly Custom
  High: Low: Average:
Temperature: 64.9 °F /  18.3 °C 40.5 °F /  4.7 °C 51.4 °F /  10.8 °C
Dew Point: 49.3 °F /  9.6 °C 33.1 °F /  0.6 °C 40.5 °F /  4.7 °C
Humidity: 94 % 43 % 68 %
Wind Speed: 22 mph /  35.4 km/h - 3.9 mph /  6.3 km/h
Wind Gust: 36 mph /  57.9 km/h - -
Wind:- - SSE
Pressure: 29.8 in /  1010.4 hPa 29.6 in /  1000.6 hPa -
Precipitation: 0.59 in /  15.0 mm    
Historical Graphs
 
 
Tabular Data for April 30, 2017
Time Temperature Dew Point Pressure Wind Wind Speed Wind Gust Humidity Rainfall Rate (Hourly)
00:02 48.9 °F /  9.4 °C 35.6 °F /  2.0 °C 29.8 in /  1010.4 hPa NE 1 mph /  1.6 km/h 3 mph /  4.8 km/h 60 % 0 in /  0.0 mm
00:07 48.9 °F /  9.4 °C 35.6 °F /  2.0 °C 29.8 in /  1010.4 hPa NE 1 mph /  1.6 km/h 4 mph /  6.4 km/h 60 % 0 in /  0.0 mm
00:12 48.7 °F /  9.3 °C 35.4 °F /  1.9 °C 29.8 in /  1010.4 hPa NE 1 mph /  1.6 km/h 4 mph /  6.4 km/h 60 % 0 in /  0.0 mm
00:17 48.7 °F /  9.3 °C 35.4 °F /  1.9 °C 29.8 in /  1010.4 hPa NE 2 mph /  3.2 km/h 4 mph /  6.4 km/h 60 % 0 in /  0.0 mm
00:22 48.9 °F /  9.4 °C 35.6 °F /  2.0 °C 29.8 in /  1010.4 hPa NE 2 mph /  3.2 km/h 4 mph /  6.4 km/h 60 % 0 in /  0.0 mm
00:27 48.9 °F /  9.4 °C 35.2 °F /  1.8 °C 29.8 in /  1010.4 hPa NE 1 mph /  1.6 km/h 3 mph /  4.8 km/h 59 % 0 in /  0.0 mm
00:32 48.7 °F /  9.3 °C 35.4 °F /  1.9 °C 29.8 in /  1010.4 hPa NE 2 mph /  3.2 km/h 3 mph /  4.8 km/h 60 % 0 in /  0.0 mm
00:42 48.6 °F /  9.2 °C 35.2 °F /  1.8 °C 29.8 in /  1010.4 hPa NNE 2 mph /  3.2 km/h 3 mph /  4.8 km/h 60 % 0 in /  0.0 mm
00:47 48.4 °F /  9.1 °C 35.1 °F /  1.7 °C 29.8 in /  1010.0 hPa NE 2 mph /  3.2 km/h 3 mph /  4.8 km/h 60 % 0 in /  0.0 mm
00:52 48.4 °F /  9.1 °C 35.6 °F /  2.0 °C 29.8 in /  1010.0 hPa North 1 mph /  1.6 km/h 3 mph /  4.8 km/h 61 % 0 in /  0.0 mm
00:57 47.5 °F /  8.6 °C 35.1 °F /  1.7 °C 29.8 in /  1010.0 hPa WNW 1 mph /  1.6 km/h 3 mph /  4.8 km/h 62 % 0 in /  0.0 mm
01:02 46.6 °F /  8.1 °C 35.4 °F /  1.9 °C 29.8 in /  1010.0 hPa Calm   3 mph /  4.8 km/h 65 % 0 in /  0.0 mm
01:07 46.4 °F /  8.0 °C 35.2 °F /  1.8 °C 29.8 in /  1010.0 hPa NNW 1 mph /  1.6 km/h 3 mph /  4.8 km/h 65 % 0 in /  0.0 mm
01:12 46.9 °F /  8.3 °C 35.4 °F /  1.9 °C 29.8 in /  1010.0 hPa North 1 mph /  1.6 km/h 3 mph /  4.8 km/h 64 % 0 in /  0.0 mm
01:17 46.9 °F /  8.3 °C 35.1 °F /  1.7 °C 29.8 in /  1010.0 hPa Calm   2 mph /  3.2 km/h 63 % 0 in /  0.0 mm
01:22 45.9 °F /  7.7 °C 35.1 °F /  1.7 °C 29.8 in /  1010.0 hPa WNW 1 mph /  1.6 km/h 2 mph /  3.2 km/h 66 % 0 in /  0.0 mm
01:27 45.7 °F /  7.6 °C 35.4 °F /  1.9 °C 29.8 in /  1010.0 hPa Calm   2 mph /  3.2 km/h 67 % 0 in /  0.0 mm
01:32 46.8 °F /  8.2 °C 35.6 °F /  2.0 °C 29.8 in /  1010.0 hPa Calm   2 mph /  3.2 km/h 65 % 0 in /  0.0 mm
01:37 46.8 °F /  8.2 °C 35.2 °F /  1.8 °C 29.8 in /  1010.0 hPa Calm   2 mph /  3.2 km/h 64 % 0 in /  0.0 mm
01:42 46.8 °F /  8.2 °C 35.6 °F /  2.0 °C 29.8 in /  1010.0 hPa Calm   2 mph /  3.2 km/h 65 % 0 in /  0.0 mm
01:47 46.6 °F /  8.1 °C 35.4 °F /  1.9 °C 29.8 in /  1010.0 hPa Calm   1 mph /  1.6 km/h 65 % 0 in /  0.0 mm
01:52 47.1 °F /  8.4 °C 36 °F /  2.2 °C 29.8 in /  1009.7 hPa Calm   1 mph /  1.6 km/h 65 % 0 in /  0.0 mm
02:02 47.3 °F /  8.5 °C 35.4 °F /  1.9 °C 29.8 in /  1009.7 hPa Calm   1 mph /  1.6 km/h 63 % 0 in /  0.0 mm
02:12 46.2 °F /  7.9 °C 35.1 °F /  1.7 °C 29.8 in /  1009.7 hPa Calm   1 mph /  1.6 km/h 65 % 0 in /  0.0 mm
02:17 45.7 °F /  7.6 °C 35.4 °F /  1.9 °C 29.8 in /  1009.7 hPa Calm     67 % 0 in /  0.0 mm
02:22 46.2 °F /  7.9 °C 36 °F /  2.2 °C 29.8 in /  1009.7 hPa Calm   2 mph /  3.2 km/h 67 % 0 in /  0.0 mm
02:32 46.9 °F /  8.3 °C 35.4 °F /  1.9 °C 29.8 in /  1009.7 hPa SSW 1 mph /  1.6 km/h 2 mph /  3.2 km/h 64 % 0 in /  0.0 mm
02:42 46.2 °F /  7.9 °C 35.4 °F /  1.9 °C 29.8 in /  1009.7 hPa Calm   3 mph /  4.8 km/h 66 % 0 in /  0.0 mm
02:47 46.4 °F /  8.0 °C 35.2 °F /  1.8 °C 29.8 in /  1009.7 hPa Calm   1 mph /  1.6 km/h 65 % 0 in /  0.0 mm
02:52 46.2 °F /  7.9 °C 35.4 °F /  1.9 °C 29.8 in /  1009.7 hPa Calm   2 mph /  3.2 km/h 66 % 0 in /  0.0 mm
02:57 45.9 °F /  7.7 °C 35.1 °F /  1.7 °C 29.8 in /  1009.7 hPa Calm   2 mph /  3.2 km/h 66 % 0 in /  0.0 mm
03:02 45.7 °F /  7.6 °C 35.4 °F /  1.9 °C 29.8 in /  1009.4 hPa Calm   2 mph /  3.2 km/h 67 % 0 in /  0.0 mm
03:12 45.7 °F /  7.6 °C 35.4 °F /  1.9 °C 29.8 in /  1009.4 hPa Calm   1 mph /  1.6 km/h 67 % 0 in /  0.0 mm
03:17 45.7 °F /  7.6 °C 35.8 °F /  2.1 °C 29.8 in /  1009.4 hPa Calm   1 mph /  1.6 km/h 68 % 0 in /  0.0 mm
03:22 45.9 °F /  7.7 °C 35.6 °F /  2.0 °C 29.8 in /  1009.4 hPa Calm   1 mph /  1.6 km/h 67 % 0 in /  0.0 mm
03:32 45.7 °F /  7.6 °C 35.4 °F /  1.9 °C 29.8 in /  1009.4 hPa Calm   1 mph /  1.6 km/h 67 % 0 in /  0.0 mm
03:37 45 °F /  7.2 °C 35.1 °F /  1.7 °C 29.8 in /  1009.4 hPa Calm   1 mph /  1.6 km/h 68 % 0 in /  0.0 mm
03:42 44.6 °F /  7.0 °C 35.1 °F /  1.7 °C 29.8 in /  1009.4 hPa Calm   1 mph /  1.6 km/h 69 % 0 in /  0.0 mm
03:47 44.4 °F /  6.9 °C 35.2 °F /  1.8 °C 29.8 in /  1009.4 hPa Calm   1 mph /  1.6 km/h 70 % 0 in /  0.0 mm
03:52 44.2 °F /  6.8 °C 35.1 °F /  1.7 °C 29.8 in /  1009.4 hPa Calm   1 mph /  1.6 km/h 70 % 0 in /  0.0 mm
03:57 44.4 °F /  6.9 °C 35.2 °F /  1.8 °C 29.8 in /  1009.4 hPa Calm   1 mph /  1.6 km/h 70 % 0 in /  0.0 mm
04:02 44.4 °F /  6.9 °C 35.2 °F /  1.8 °C 29.8 in /  1009.4 hPa Calm   1 mph /  1.6 km/h 70 % 0 in /  0.0 mm
04:12 43 °F /  6.1 °C 35.2 °F /  1.8 °C 29.8 in /  1009.4 hPa Calm   1 mph /  1.6 km/h 74 % 0 in /  0.0 mm
04:17 43 °F /  6.1 °C 35.6 °F /  2.0 °C 29.8 in /  1009.4 hPa Calm   2 mph /  3.2 km/h 75 % 0 in /  0.0 mm
04:22 43.5 °F /  6.4 °C 35.4 °F /  1.9 °C 29.8 in /  1009.4 hPa Calm   2 mph /  3.2 km/h 73 % 0 in /  0.0 mm
04:32 43.9 °F /  6.6 °C 35.4 °F /  1.9 °C 29.8 in /  1009.4 hPa Calm   1 mph /  1.6 km/h 72 % 0 in /  0.0 mm
04:42 43.5 °F /  6.4 °C 35.1 °F /  1.7 °C 29.8 in /  1009.4 hPa Calm     72 % 0 in /  0.0 mm
04:52 43 °F /  6.1 °C 34.9 °F /  1.6 °C 29.8 in /  1009.4 hPa Calm   1 mph /  1.6 km/h 73 % 0 in /  0.0 mm
04:57 43.5 °F /  6.4 °C 34.7 °F /  1.5 °C 29.8 in /  1009.0 hPa Calm   1 mph /  1.6 km/h 71 % 0 in /  0.0 mm
05:02 43.9 °F /  6.6 °C 34.7 °F /  1.5 °C 29.8 in /  1009.0 hPa North 1 mph /  1.6 km/h 1 mph /  1.6 km/h 70 % 0 in /  0.0 mm
05:12 44.2 °F /  6.8 °C 34.7 °F /  1.5 °C 29.8 in /  1008.7 hPa Calm   2 mph /  3.2 km/h 69 % 0 in /  0.0 mm
05:17 43.7 °F /  6.5 °C 34.5 °F /  1.4 °C 29.8 in /  1008.7 hPa Calm   2 mph /  3.2 km/h 70 % 0 in /  0.0 mm
05:22 43.2 °F /  6.2 °C 34.3 °F /  1.3 °C 29.8 in /  1008.7 hPa North 1 mph /  1.6 km/h 1 mph /  1.6 km/h 71 % 0 in /  0.0 mm
05:27 43.2 °F /  6.2 °C 34.7 °F /  1.5 °C 29.8 in /  1008.7 hPa Calm   1 mph /  1.6 km/h 72 % 0 in /  0.0 mm
05:32 43 °F /  6.1 °C 34.5 °F /  1.4 °C 29.8 in /  1008.7 hPa Calm   1 mph /  1.6 km/h 72 % 0 in /  0.0 mm
05:37 42.8 °F /  6.0 °C 34.3 °F /  1.3 °C 29.8 in /  1008.7 hPa NW 1 mph /  1.6 km/h 1 mph /  1.6 km/h 72 % 0 in /  0.0 mm
05:42 42.3 °F /  5.7 °C 34.2 °F /  1.2 °C 29.8 in /  1008.7 hPa WNW 1 mph /  1.6 km/h   73 % 0 in /  0.0 mm
05:47 42.3 °F /  5.7 °C 34.2 °F /  1.2 °C 29.8 in /  1008.7 hPa Calm     73 % 0 in /  0.0 mm
05:52 43 °F /  6.1 °C 34.2 °F /  1.2 °C 29.8 in /  1008.4 hPa Calm   2 mph /  3.2 km/h 71 % 0 in /  0.0 mm
05:57 43 °F /  6.1 °C 34.2 °F /  1.2 °C 29.8 in /  1008.4 hPa Calm   2 mph /  3.2 km/h 71 % 0 in /  0.0 mm
06:02 43.2 °F /  6.2 °C 34 °F /  1.1 °C 29.8 in /  1008.4 hPa NNW 1 mph /  1.6 km/h 1 mph /  1.6 km/h 70 % 0 in /  0.0 mm
06:12 43.5 °F /  6.4 °C 34 °F /  1.1 °C 29.8 in /  1008.4 hPa North 1 mph /  1.6 km/h 1 mph /  1.6 km/h 69 % 0 in /  0.0 mm
06:17 43.3 °F /  6.3 °C 33.8 °F /  1.0 °C 29.8 in /  1008.4 hPa North 2 mph /  3.2 km/h 2 mph /  3.2 km/h 69 % 0 in /  0.0 mm
06:22 43.3 °F /  6.3 °C 33.4 °F /  0.8 °C 29.8 in /  1008.4 hPa North 2 mph /  3.2 km/h 2 mph /  3.2 km/h 68 % 0 in /  0.0 mm
06:32 41.9 °F /  5.5 °C 33.3 °F /  0.7 °C 29.8 in /  1008.4 hPa Calm   2 mph /  3.2 km/h 71 % 0 in /  0.0 mm
06:37 41.5 °F /  5.3 °C 33.3 °F /  0.7 °C 29.8 in /  1008.4 hPa Calm   2 mph /  3.2 km/h 72 % 0 in /  0.0 mm
06:42 41.4 °F /  5.2 °C 33.4 °F /  0.8 °C 29.8 in /  1008.0 hPa Calm   2 mph /  3.2 km/h 73 % 0 in /  0.0 mm
06:47 41.7 °F /  5.4 °C 33.4 °F /  0.8 °C 29.8 in /  1008.0 hPa Calm   2 mph /  3.2 km/h 72 % 0 in /  0.0 mm
06:52 41.9 °F /  5.5 °C 33.3 °F /  0.7 °C 29.8 in /  1008.0 hPa Calm   2 mph /  3.2 km/h 71 % 0 in /  0.0 mm
07:02 40.5 °F /  4.7 °C 33.1 °F /  0.6 °C 29.8 in /  1008.0 hPa Calm     75 % 0 in /  0.0 mm
07:12 40.6 °F /  4.8 °C 33.6 °F /  0.9 °C 29.8 in /  1008.0 hPa Calm     76 % 0 in /  0.0 mm
07:17 41.7 °F /  5.4 °C 33.6 °F /  0.9 °C 29.8 in /  1007.7 hPa Calm     73 % 0 in /  0.0 mm
07:22 42.6 °F /  5.9 °C 33.4 °F /  0.8 °C 29.8 in /  1007.7 hPa Calm     70 % 0 in /  0.0 mm
07:27 43 °F /  6.1 °C 33.4 °F /  0.8 °C 29.8 in /  1007.7 hPa Calm     69 % 0 in /  0.0 mm
07:32 43.3 °F /  6.3 °C 33.8 °F /  1.0 °C 29.8 in /  1007.7 hPa Calm     69 % 0 in /  0.0 mm
07:42 44.2 °F /  6.8 °C 34 °F /  1.1 °C 29.8 in /  1007.7 hPa Calm     67 % 0 in /  0.0 mm
07:47 45.1 °F /  7.3 °C 34.2 °F /  1.2 °C 29.8 in /  1007.7 hPa Calm     65 % 0 in /  0.0 mm
07:52 46.2 °F /  7.9 °C 34.7 °F /  1.5 °C 29.8 in /  1007.7 hPa Calm     64 % 0 in /  0.0 mm
07:57 47.1 °F /  8.4 °C 34.7 °F /  1.5 °C 29.7 in /  1007.3 hPa Calm     62 % 0 in /  0.0 mm
08:02 48.2 °F /  9.0 °C 35.4 °F /  1.9 °C 29.8 in /  1007.7 hPa Calm     61 % 0 in /  0.0 mm
08:12 48.4 °F /  9.1 °C 35.1 °F /  1.7 °C 29.8 in /  1007.7 hPa Calm   3 mph /  4.8 km/h 60 % 0 in /  0.0 mm
08:17 48.4 °F /  9.1 °C 35.1 °F /  1.7 °C 29.8 in /  1007.7 hPa SE 1 mph /  1.6 km/h 3 mph /  4.8 km/h 60 % 0 in /  0.0 mm
08:22 48.6 °F /  9.2 °C 35.8 °F /  2.1 °C 29.7 in /  1007.3 hPa Calm   3 mph /  4.8 km/h 61 % 0 in /  0.0 mm
08:32 49.8 °F /  9.9 °C 35.6 °F /  2.0 °C 29.7 in /  1007.3 hPa Calm   2 mph /  3.2 km/h 58 % 0 in /  0.0 mm
08:42 51.3 °F /  10.7 °C 35.2 °F /  1.8 °C 29.7 in /  1007.3 hPa Calm     54 % 0 in /  0.0 mm
08:47 51.3 °F /  10.7 °C 35.2 °F /  1.8 °C 29.7 in /  1007.3 hPa SSE 3 mph /  4.8 km/h   54 % 0 in /  0.0 mm
08:52 51.1 °F /  10.6 °C 35.1 °F /  1.7 °C 29.7 in /  1007.3 hPa SE 3 mph /  4.8 km/h 6 mph /  9.7 km/h 54 % 0 in /  0.0 mm
08:57 51.3 °F /  10.7 °C 35.6 °F /  2.0 °C 29.7 in /  1007.3 hPa SE 2 mph /  3.2 km/h 6 mph /  9.7 km/h 55 % 0 in /  0.0 mm
09:02 51.4 °F /  10.8 °C 34.9 °F /  1.6 °C 29.7 in /  1007.0 hPa SE 4 mph /  6.4 km/h 8 mph /  12.9 km/h 53 % 0 in /  0.0 mm
09:12 52 °F /  11.1 °C 34.3 °F /  1.3 °C 29.7 in /  1007.0 hPa East 2 mph /  3.2 km/h 11 mph /  17.7 km/h 51 % 0 in /  0.0 mm
09:17 52.5 °F /  11.4 °C 34.9 °F /  1.6 °C 29.7 in /  1007.0 hPa SE 4 mph /  6.4 km/h 11 mph /  17.7 km/h 51 % 0 in /  0.0 mm
09:22 52.9 °F /  11.6 °C 34.2 °F /  1.2 °C 29.7 in /  1007.0 hPa East 5 mph /  8.0 km/h 11 mph /  17.7 km/h 49 % 0 in /  0.0 mm
09:32 53.4 °F /  11.9 °C 34.7 °F /  1.5 °C 29.7 in /  1006.7 hPa SSE 5 mph /  8.0 km/h 12 mph /  19.3 km/h 49 % 0 in /  0.0 mm
09:42 54.1 °F /  12.3 °C 34.9 °F /  1.6 °C 29.7 in /  1006.7 hPa South 4 mph /  6.4 km/h 12 mph /  19.3 km/h 48 % 0 in /  0.0 mm
09:52 54.9 °F /  12.7 °C 35.1 °F /  1.7 °C 29.7 in /  1006.7 hPa WSW 2 mph /  3.2 km/h 14 mph /  22.5 km/h 47 % 0 in /  0.0 mm
09:57 55.2 °F /  12.9 °C 35.4 °F /  1.9 °C 29.7 in /  1006.3 hPa SE 1 mph /  1.6 km/h 14 mph /  22.5 km/h 47 % 0 in /  0.0 mm
10:02 55.8 °F /  13.2 °C 35.2 °F /  1.8 °C 29.7 in /  1006.3 hPa East 7 mph /  11.3 km/h 14 mph /  22.5 km/h 46 % 0 in /  0.0 mm
10:12 56.3 °F /  13.5 °C 35.8 °F /  2.1 °C 29.7 in /  1006.3 hPa ESE 7 mph /  11.3 km/h 14 mph /  22.5 km/h 46 % 0 in /  0.0 mm
10:17 56.7 °F /  13.7 °C 36.1 °F /  2.3 °C 29.7 in /  1006.3 hPa SE 8 mph /  12.9 km/h 14 mph /  22.5 km/h 46 % 0 in /  0.0 mm
10:22 57.2 °F /  14.0 °C 36 °F /  2.2 °C 29.7 in /  1006.3 hPa SE 7 mph /  11.3 km/h 14 mph /  22.5 km/h 45 % 0 in /  0.0 mm
10:32 57.9 °F /  14.4 °C 37.8 °F /  3.2 °C 29.7 in /  1006.0 hPa East 5 mph /  8.0 km/h 12 mph /  19.3 km/h 47 % 0 in /  0.0 mm
10:42 58.8 °F /  14.9 °C 37.6 °F /  3.1 °C 29.7 in /  1006.3 hPa SE 5 mph /  8.0 km/h 12 mph /  19.3 km/h 45 % 0 in /  0.0 mm
10:47 59.2 °F /  15.1 °C 37.9 °F /  3.3 °C 29.7 in /  1006.0 hPa East 8 mph /  12.9 km/h 12 mph /  19.3 km/h 45 % 0 in /  0.0 mm
10:52 59.7 °F /  15.4 °C 37.2 °F /  2.9 °C 29.7 in /  1006.0 hPa SSE 3 mph /  4.8 km/h 12 mph /  19.3 km/h 43 % 0 in /  0.0 mm
10:57 60.3 °F /  15.7 °C 38.8 °F /  3.8 °C 29.7 in /  1006.0 hPa SSE 2 mph /  3.2 km/h 12 mph /  19.3 km/h 45 % 0 in /  0.0 mm
11:02 60.1 °F /  15.6 °C 38.1 °F /  3.4 °C 29.7 in /  1006.0 hPa SW 7 mph /  11.3 km/h 12 mph /  19.3 km/h 44 % 0 in /  0.0 mm
11:12 60.3 °F /  15.7 °C 38.3 °F /  3.5 °C 29.7 in /  1005.6 hPa ESE 9 mph /  14.5 km/h 13 mph /  20.9 km/h 44 % 0 in /  0.0 mm
11:17 60.3 °F /  15.7 °C 38.8 °F /  3.8 °C 29.7 in /  1005.6 hPa SE 10 mph /  16.1 km/h 13 mph /  20.9 km/h 45 % 0 in /  0.0 mm
11:22 60.3 °F /  15.7 °C 38.3 °F /  3.5 °C 29.7 in /  1005.6 hPa SSE 4 mph /  6.4 km/h 17 mph /  27.4 km/h 44 % 0 in /  0.0 mm
11:32 61.5 °F /  16.4 °C 40.5 °F /  4.7 °C 29.7 in /  1005.6 hPa South 5 mph /  8.0 km/h 14 mph /  22.5 km/h 46 % 0 in /  0.0 mm
11:37 62.1 °F /  16.7 °C 39.4 °F /  4.1 °C 29.7 in /  1005.3 hPa SE 4 mph /  6.4 km/h 14 mph /  22.5 km/h 43 % 0 in /  0.0 mm
11:42 62.4 °F /  16.9 °C 39.6 °F /  4.2 °C 29.7 in /  1005.3 hPa SE 4 mph /  6.4 km/h 14 mph /  22.5 km/h 43 % 0 in /  0.0 mm
11:52 62.6 °F /  17.0 °C 39.7 °F /  4.3 °C 29.7 in /  1005.0 hPa ESE 7 mph /  11.3 km/h 16 mph /  25.7 km/h 43 % 0 in /  0.0 mm
11:57 63.3 °F /  17.4 °C 40.5 °F /  4.7 °C 29.7 in /  1005.0 hPa South 4 mph /  6.4 km/h 16 mph /  25.7 km/h 43 % 0 in /  0.0 mm
12:02 63.1 °F /  17.3 °C 40.8 °F /  4.9 °C 29.7 in /  1005.0 hPa SSW 4 mph /  6.4 km/h 14 mph /  22.5 km/h 44 % 0 in /  0.0 mm
12:12 63.1 °F /  17.3 °C 41.5 °F /  5.3 °C 29.7 in /  1005.0 hPa ESE 6 mph /  9.7 km/h 16 mph /  25.7 km/h 45 % 0 in /  0.0 mm
12:17 63.9 °F /  17.7 °C 41.5 °F /  5.3 °C 29.7 in /  1004.6 hPa SE 9 mph /  14.5 km/h 16 mph /  25.7 km/h 44 % 0 in /  0.0 mm
12:22 63.5 °F /  17.5 °C 41.7 °F /  5.4 °C 29.7 in /  1004.6 hPa East 7 mph /  11.3 km/h 16 mph /  25.7 km/h 45 % 0 in /  0.0 mm
12:32 64.2 °F /  17.9 °C 42.4 °F /  5.8 °C 29.7 in /  1004.6 hPa SE 11 mph /  17.7 km/h 17 mph /  27.4 km/h 45 % 0 in /  0.0 mm
12:37 64.2 °F /  17.9 °C 43 °F /  6.1 °C 29.7 in /  1004.6 hPa ESE 12 mph /  19.3 km/h 17 mph /  27.4 km/h 46 % 0 in /  0.0 mm
12:42 64.6 °F /  18.1 °C 42.8 °F /  6.0 °C 29.7 in /  1004.3 hPa SW 3 mph /  4.8 km/h 17 mph /  27.4 km/h 45 % 0 in /  0.0 mm
12:47 64.9 °F /  18.3 °C 43.7 °F /  6.5 °C 29.7 in /  1004.3 hPa East 8 mph /  12.9 km/h 17 mph /  27.4 km/h 46 % 0 in /  0.0 mm
12:52 64.8 °F /  18.2 °C 43.5 °F /  6.4 °C 29.7 in /  1004.3 hPa SE 11 mph /  17.7 km/h 20 mph /  32.2 km/h 46 % 0 in /  0.0 mm
13:02 63.9 °F /  17.7 °C 43.2 °F /  6.2 °C 29.7 in /  1004.3 hPa South 8 mph /  12.9 km/h 20 mph /  32.2 km/h 47 % 0 in /  0.0 mm
13:12 63.7 °F /  17.6 °C 43.7 °F /  6.5 °C 29.7 in /  1004.3 hPa South 9 mph /  14.5 km/h 16 mph /  25.7 km/h 48 % 0 in /  0.0 mm
13:17 63.7 °F /  17.6 °C 44.2 °F /  6.8 °C 29.6 in /  1003.9 hPa SE 5 mph /  8.0 km/h 16 mph /  25.7 km/h 49 % 0 in /  0.0 mm
13:22 63.7 °F /  17.6 °C 44.2 °F /  6.8 °C 29.6 in /  1003.9 hPa SE 5 mph /  8.0 km/h 16 mph /  25.7 km/h 49 % 0 in /  0.0 mm
13:32 63 °F /  17.2 °C 44.1 °F /  6.7 °C 29.7 in /  1004.3 hPa SSE 2 mph /  3.2 km/h 16 mph /  25.7 km/h 50 % 0 in /  0.0 mm
13:37 62.8 °F /  17.1 °C 43.9 °F /  6.6 °C 29.7 in /  1004.3 hPa East 9 mph /  14.5 km/h 16 mph /  25.7 km/h 50 % 0 in /  0.0 mm
13:42 62.2 °F /  16.8 °C 44.4 °F /  6.9 °C 29.6 in /  1003.9 hPa SSE 9 mph /  14.5 km/h 16 mph /  25.7 km/h 52 % 0 in /  0.0 mm
13:47 61.9 °F /  16.6 °C 45.5 °F /  7.5 °C 29.7 in /  1004.3 hPa South 5 mph /  8.0 km/h 16 mph /  25.7 km/h 55 % 0 in /  0.0 mm
13:52 61.5 °F /  16.4 °C 46.2 °F /  7.9 °C 29.7 in /  1004.3 hPa SE 7 mph /  11.3 km/h 13 mph /  20.9 km/h 57 % 0 in /  0.0 mm
13:57 61.3 °F /  16.3 °C 46 °F /  7.8 °C 29.6 in /  1003.9 hPa South 3 mph /  4.8 km/h 13 mph /  20.9 km/h 57 % 0 in /  0.0 mm
14:02 61.3 °F /  16.3 °C 46.4 °F /  8.0 °C 29.6 in /  1003.9 hPa SSE 2 mph /  3.2 km/h 13 mph /  20.9 km/h 58 % 0 in /  0.0 mm
14:12 61.3 °F /  16.3 °C 47.3 °F /  8.5 °C 29.6 in /  1003.6 hPa ESE 7 mph /  11.3 km/h 11 mph /  17.7 km/h 60 % 0 in /  0.0 mm
14:17 61.3 °F /  16.3 °C 48.6 °F /  9.2 °C 29.6 in /  1003.6 hPa ESE 4 mph /  6.4 km/h 8 mph /  12.9 km/h 63 % 0 in /  0.0 mm
14:22 61.5 °F /  16.4 °C 48.7 °F /  9.3 °C 29.6 in /  1003.6 hPa East 2 mph /  3.2 km/h 8 mph /  12.9 km/h 63 % 0 in /  0.0 mm
14:27 61.5 °F /  16.4 °C 47.5 °F /  8.6 °C 29.6 in /  1003.3 hPa SE 3 mph /  4.8 km/h 7 mph /  11.3 km/h 60 % 0 in /  0.0 mm
14:32 61.5 °F /  16.4 °C 48.7 °F /  9.3 °C 29.6 in /  1002.9 hPa East 5 mph /  8.0 km/h 8 mph /  12.9 km/h 63 % 0 in /  0.0 mm
14:42 61.5 °F /  16.4 °C 48 °F /  8.9 °C 29.6 in /  1002.9 hPa ESE 2 mph /  3.2 km/h 8 mph /  12.9 km/h 61 % 0 in /  0.0 mm
14:47 61.9 °F /  16.6 °C 48.2 °F /  9.0 °C 29.6 in /  1002.9 hPa East 4 mph /  6.4 km/h 10 mph /  16.1 km/h 61 % 0 in /  0.0 mm
14:52 62.4 °F /  16.9 °C 48.4 °F /  9.1 °C 29.6 in /  1002.9 hPa SE 7 mph /  11.3 km/h 11 mph /  17.7 km/h 60 % 0 in /  0.0 mm
14:57 62.2 °F /  16.8 °C 48.2 °F /  9.0 °C 29.6 in /  1002.9 hPa SE 5 mph /  8.0 km/h 12 mph /  19.3 km/h 60 % 0 in /  0.0 mm
15:02 62.2 °F /  16.8 °C 47.7 °F /  8.7 °C 29.6 in /  1002.9 hPa ESE 3 mph /  4.8 km/h 12 mph /  19.3 km/h 59 % 0 in /  0.0 mm
15:12 62.2 °F /  16.8 °C 48.6 °F /  9.2 °C 29.6 in /  1002.6 hPa ENE 3 mph /  4.8 km/h 12 mph /  19.3 km/h 61 % 0 in /  0.0 mm
15:17 62.4 °F /  16.9 °C 48.4 °F /  9.1 °C 29.6 in /  1002.3 hPa ESE 3 mph /  4.8 km/h 12 mph /  19.3 km/h 60 % 0 in /  0.0 mm
15:22 62.4 °F /  16.9 °C 48.7 °F /  9.3 °C 29.6 in /  1002.3 hPa SE 3 mph /  4.8 km/h 12 mph /  19.3 km/h 61 % 0 in /  0.0 mm
15:32 62.1 °F /  16.7 °C 48.4 °F /  9.1 °C 29.6 in /  1002.3 hPa East 2 mph /  3.2 km/h 11 mph /  17.7 km/h 61 % 0 in /  0.0 mm
15:42 62.1 °F /  16.7 °C 48 °F /  8.9 °C 29.6 in /  1001.9 hPa ENE 2 mph /  3.2 km/h 13 mph /  20.9 km/h 60 % 0 in /  0.0 mm
15:52 62.4 °F /  16.9 °C 48.4 °F /  9.1 °C 29.6 in /  1001.6 hPa SSE 3 mph /  4.8 km/h 12 mph /  19.3 km/h 60 % 0 in /  0.0 mm
16:02 62.8 °F /  17.1 °C 47.8 °F /  8.8 °C 29.6 in /  1001.6 hPa SSE 7 mph /  11.3 km/h 17 mph /  27.4 km/h 58 % 0 in /  0.0 mm
16:12 63.7 °F /  17.6 °C 47.7 °F /  8.7 °C 29.6 in /  1001.2 hPa ESE 10 mph /  16.1 km/h 17 mph /  27.4 km/h 56 % 0 in /  0.0 mm
16:17 63.7 °F /  17.6 °C 46.8 °F /  8.2 °C 29.6 in /  1001.2 hPa SE 14 mph /  22.5 km/h 17 mph /  27.4 km/h 54 % 0 in /  0.0 mm
16:22 63.9 °F /  17.7 °C 46.4 °F /  8.0 °C 29.6 in /  1001.2 hPa SSW 11 mph /  17.7 km/h 17 mph /  27.4 km/h 53 % 0 in /  0.0 mm
16:32 64.4 °F /  18.0 °C 46.9 °F /  8.3 °C 29.6 in /  1000.9 hPa SE 7 mph /  11.3 km/h 24 mph /  38.6 km/h 53 % 0 in /  0.0 mm
16:37 64.8 °F /  18.2 °C 46.8 °F /  8.2 °C 29.6 in /  1000.9 hPa ESE 9 mph /  14.5 km/h 24 mph /  38.6 km/h 52 % 0 in /  0.0 mm
16:47 64.9 °F /  18.3 °C 46.4 °F /  8.0 °C 29.6 in /  1000.9 hPa East 6 mph /  9.7 km/h 16 mph /  25.7 km/h 51 % 0 in /  0.0 mm
16:52 64.8 °F /  18.2 °C 46.2 °F /  7.9 °C 29.6 in /  1000.6 hPa SW 6 mph /  9.7 km/h 18 mph /  29.0 km/h 51 % 0 in /  0.0 mm
16:57 64.8 °F /  18.2 °C 46.2 °F /  7.9 °C 29.6 in /  1000.6 hPa SE 10 mph /  16.1 km/h 22 mph /  35.4 km/h 51 % 0 in /  0.0 mm
17:02 64.6 °F /  18.1 °C 46 °F /  7.8 °C 29.6 in /  1000.6 hPa SSW 13 mph /  20.9 km/h 22 mph /  35.4 km/h 51 % 0 in /  0.0 mm
17:07 64.6 °F /  18.1 °C 46 °F /  7.8 °C 29.6 in /  1000.6 hPa East 12 mph /  19.3 km/h 23 mph /  37.0 km/h 51 % 0 in /  0.0 mm
17:12 64.4 °F /  18.0 °C 46.4 °F /  8.0 °C 29.6 in /  1000.9 hPa SSW 8 mph /  12.9 km/h 23 mph /  37.0 km/h 52 % 0 in /  0.0 mm
17:17 64.4 °F /  18.0 °C 46.4 °F /  8.0 °C 29.6 in /  1000.9 hPa SE 10 mph /  16.1 km/h 23 mph /  37.0 km/h 52 % 0 in /  0.0 mm
17:22 64.2 °F /  17.9 °C 46.8 °F /  8.2 °C 29.6 in /  1000.9 hPa SW 5 mph /  8.0 km/h 18 mph /  29.0 km/h 53 % 0 in /  0.0 mm
17:27 63.9 °F /  17.7 °C 47.3 °F /  8.5 °C 29.6 in /  1000.9 hPa South 12 mph /  19.3 km/h 16 mph /  25.7 km/h 55 % 0 in /  0.0 mm
17:32 60.6 °F /  15.9 °C 48.7 °F /  9.3 °C 29.6 in /  1001.9 hPa SW 17 mph /  27.4 km/h 17 mph /  27.4 km/h 65 % 0 in /  0.0 mm
17:42 53.1 °F /  11.7 °C 49.3 °F /  9.6 °C 29.6 in /  1002.3 hPa West 22 mph /  35.4 km/h 26 mph /  41.8 km/h 87 % 0 in /  0.0 mm
17:47 52 °F /  11.1 °C 48.9 °F /  9.4 °C 29.6 in /  1002.6 hPa WSW 7 mph /  11.3 km/h 36 mph /  57.9 km/h 89 % 0.02 in /  0.5 mm
17:52 51.6 °F /  10.9 °C 48.7 °F /  9.3 °C 29.6 in /  1002.6 hPa West 9 mph /  14.5 km/h 36 mph /  57.9 km/h 90 % 0.09 in /  2.3 mm
17:57 51.4 °F /  10.8 °C 48.6 °F /  9.2 °C 29.6 in /  1002.9 hPa West 10 mph /  16.1 km/h 28 mph /  45.1 km/h 90 % 0.13 in /  3.3 mm
18:02 51.1 °F /  10.6 °C 48 °F /  8.9 °C 29.6 in /  1002.9 hPa West 21 mph /  33.8 km/h 24 mph /  38.6 km/h 89 % 0.13 in /  3.3 mm
18:12 50.4 °F /  10.2 °C 47.5 °F /  8.6 °C 29.6 in /  1002.9 hPa West 18 mph /  29.0 km/h 25 mph /  40.2 km/h 90 % 0.15 in /  3.8 mm
18:17 50.2 °F /  10.1 °C 47.3 °F /  8.5 °C 29.6 in /  1003.3 hPa WSW 4 mph /  6.4 km/h 25 mph /  40.2 km/h 90 % 0.18 in /  4.6 mm
18:22 50 °F /  10.0 °C 47.1 °F /  8.4 °C 29.6 in /  1003.3 hPa West 9 mph /  14.5 km/h 25 mph /  40.2 km/h 90 % 0.18 in /  4.6 mm
18:27 49.8 °F /  9.9 °C 47.3 °F /  8.5 °C 29.6 in /  1003.3 hPa WSW 9 mph /  14.5 km/h 21 mph /  33.8 km/h 91 % 0.2 in /  5.1 mm
18:32 49.8 °F /  9.9 °C 47.3 °F /  8.5 °C 29.6 in /  1003.6 hPa West 8 mph /  12.9 km/h 21 mph /  33.8 km/h 91 % 0.2 in /  5.1 mm
18:42 49.6 °F /  9.8 °C 47.5 °F /  8.6 °C 29.6 in /  1003.6 hPa SW 6 mph /  9.7 km/h 14 mph /  22.5 km/h 92 % 0.23 in /  5.8 mm
18:52 49.6 °F /  9.8 °C 47.7 °F /  8.7 °C 29.6 in /  1003.9 hPa West 4 mph /  6.4 km/h 12 mph /  19.3 km/h 93 % 0.17 in /  4.3 mm
18:57 49.5 °F /  9.7 °C 47.5 °F /  8.6 °C 29.6 in /  1003.9 hPa West 3 mph /  4.8 km/h 11 mph /  17.7 km/h 93 % 0.17 in /  4.3 mm
19:02 49.5 °F /  9.7 °C 47.5 °F /  8.6 °C 29.6 in /  1003.9 hPa WSW 4 mph /  6.4 km/h 9 mph /  14.5 km/h 93 % 0.17 in /  4.3 mm
19:12 49.3 °F /  9.6 °C 47.3 °F /  8.5 °C 29.6 in /  1003.9 hPa WSW 4 mph /  6.4 km/h 9 mph /  14.5 km/h 93 % 0.18 in /  4.6 mm
19:22 49.1 °F /  9.5 °C 47.1 °F /  8.4 °C 29.6 in /  1003.9 hPa SW 5 mph /  8.0 km/h 12 mph /  19.3 km/h 93 % 0.19 in /  4.8 mm
19:32 48.9 °F /  9.4 °C 46.9 °F /  8.3 °C 29.7 in /  1004.3 hPa SW 10 mph /  16.1 km/h 11 mph /  17.7 km/h 93 % 0.2 in /  5.1 mm
19:42 48.4 °F /  9.1 °C 46.2 °F /  7.9 °C 29.7 in /  1004.6 hPa South 11 mph /  17.7 km/h 12 mph /  19.3 km/h 92 % 0.22 in /  5.6 mm
19:47 48 °F /  8.9 °C 45.9 °F /  7.7 °C 29.7 in /  1004.6 hPa WSW 4 mph /  6.4 km/h 13 mph /  20.9 km/h 92 % 0.22 in /  5.6 mm
19:52 47.7 °F /  8.7 °C 45.5 °F /  7.5 °C 29.7 in /  1004.6 hPa SW 6 mph /  9.7 km/h 13 mph /  20.9 km/h 92 % 0.2 in /  5.1 mm
19:57 47.3 °F /  8.5 °C 45.1 °F /  7.3 °C 29.7 in /  1005.0 hPa SW 5 mph /  8.0 km/h 12 mph /  19.3 km/h 92 % 0.18 in /  4.6 mm
20:02 47.1 °F /  8.4 °C 45.1 °F /  7.3 °C 29.7 in /  1005.0 hPa WSW 9 mph /  14.5 km/h 14 mph /  22.5 km/h 93 % 0.17 in /  4.3 mm
20:12 47.1 °F /  8.4 °C 45.1 °F /  7.3 °C 29.7 in /  1005.3 hPa SW 3 mph /  4.8 km/h 15 mph /  24.1 km/h 93 % 0.15 in /  3.8 mm
20:17 46.9 °F /  8.3 °C 45 °F /  7.2 °C 29.7 in /  1005.6 hPa SW 5 mph /  8.0 km/h 15 mph /  24.1 km/h 93 % 0.13 in /  3.3 mm
20:22 46.9 °F /  8.3 °C 45 °F /  7.2 °C 29.7 in /  1006.0 hPa South 4 mph /  6.4 km/h 12 mph /  19.3 km/h 93 % 0.13 in /  3.3 mm
20:32 46.8 °F /  8.2 °C 45.1 °F /  7.3 °C 29.7 in /  1006.0 hPa SSW 8 mph /  12.9 km/h 12 mph /  19.3 km/h 94 % 0.12 in /  3.0 mm
20:42 46.8 °F /  8.2 °C 45.1 °F /  7.3 °C 29.7 in /  1006.0 hPa SW 7 mph /  11.3 km/h 11 mph /  17.7 km/h 94 % 0.1 in /  2.5 mm
20:47 46.6 °F /  8.1 °C 45 °F /  7.2 °C 29.7 in /  1006.3 hPa SSW 3 mph /  4.8 km/h 11 mph /  17.7 km/h 94 % 0.09 in /  2.3 mm
20:52 46.6 °F /  8.1 °C 45 °F /  7.2 °C 29.7 in /  1006.0 hPa SSW 4 mph /  6.4 km/h 9 mph /  14.5 km/h 94 % 0.09 in /  2.3 mm
20:57 46.6 °F /  8.1 °C 45 °F /  7.2 °C 29.7 in /  1006.3 hPa South 3 mph /  4.8 km/h 9 mph /  14.5 km/h 94 % 0.08 in /  2.0 mm
21:02 46.6 °F /  8.1 °C 45 °F /  7.2 °C 29.7 in /  1006.3 hPa SW 3 mph /  4.8 km/h 9 mph /  14.5 km/h 94 % 0.08 in /  2.0 mm
21:12 46.4 °F /  8.0 °C 44.8 °F /  7.1 °C 29.7 in /  1006.3 hPa South 5 mph /  8.0 km/h 8 mph /  12.9 km/h 94 % 0.07 in /  1.8 mm
21:17 46.2 °F /  7.9 °C 44.6 °F /  7.0 °C 29.7 in /  1006.3 hPa SSW 1 mph /  1.6 km/h 8 mph /  12.9 km/h 94 % 0.05 in /  1.3 mm
21:22 46.2 °F /  7.9 °C 44.6 °F /  7.0 °C 29.7 in /  1006.3 hPa SSW 2 mph /  3.2 km/h 8 mph /  12.9 km/h 94 % 0.04 in /  1.0 mm
21:32 46.2 °F /  7.9 °C 44.6 °F /  7.0 °C 29.7 in /  1006.3 hPa South 3 mph /  4.8 km/h 6 mph /  9.7 km/h 94 % 0.02 in /  0.5 mm
21:42 46 °F /  7.8 °C 44.4 °F /  6.9 °C 29.7 in /  1006.0 hPa SE 2 mph /  3.2 km/h 6 mph /  9.7 km/h 94 % 0.02 in /  0.5 mm
21:52 45.9 °F /  7.7 °C 44.2 °F /  6.8 °C 29.7 in /  1005.6 hPa SSE 1 mph /  1.6 km/h 6 mph /  9.7 km/h 94 % 0.03 in /  0.8 mm
21:57 45.9 °F /  7.7 °C 44.2 °F /  6.8 °C 29.7 in /  1006.0 hPa SW 1 mph /  1.6 km/h 5 mph /  8.0 km/h 94 % 0.02 in /  0.5 mm
22:02 45.9 °F /  7.7 °C 44.2 °F /  6.8 °C 29.7 in /  1006.7 hPa South 3 mph /  4.8 km/h 4 mph /  6.4 km/h 94 % 0.02 in /  0.5 mm
22:12 45.9 °F /  7.7 °C 44.2 °F /  6.8 °C 29.7 in /  1007.3 hPa South 5 mph /  8.0 km/h 9 mph /  14.5 km/h 94 % 0.02 in /  0.5 mm
22:17 45.9 °F /  7.7 °C 44.2 °F /  6.8 °C 29.7 in /  1007.3 hPa SSW 4 mph /  6.4 km/h 10 mph /  16.1 km/h 94 % 0.02 in /  0.5 mm
22:22 45.9 °F /  7.7 °C 43.9 °F /  6.6 °C 29.7 in /  1007.3 hPa SSW 6 mph /  9.7 km/h 11 mph /  17.7 km/h 93 % 0.02 in /  0.5 mm
22:32 45.9 °F /  7.7 °C 43.7 °F /  6.5 °C 29.7 in /  1007.3 hPa SW 9 mph /  14.5 km/h 14 mph /  22.5 km/h 92 % 0.02 in /  0.5 mm
22:42 45.9 °F /  7.7 °C 43.7 °F /  6.5 °C 29.8 in /  1007.7 hPa South 7 mph /  11.3 km/h 14 mph /  22.5 km/h 92 % 0.02 in /  0.5 mm
22:47 45.9 °F /  7.7 °C 43.7 °F /  6.5 °C 29.8 in /  1007.7 hPa SSW 5 mph /  8.0 km/h 15 mph /  24.1 km/h 92 % 0.01 in /  0.3 mm
22:52 45.7 °F /  7.6 °C 43.5 °F /  6.4 °C 29.7 in /  1007.3 hPa SE 7 mph /  11.3 km/h 15 mph /  24.1 km/h 92 % 0.01 in /  0.3 mm
22:57 45.7 °F /  7.6 °C 43.5 °F /  6.4 °C 29.7 in /  1007.3 hPa SW 4 mph /  6.4 km/h 14 mph /  22.5 km/h 92 % 0.01 in /  0.3 mm
23:02 45.7 °F /  7.6 °C 43.5 °F /  6.4 °C 29.7 in /  1007.3 hPa South 5 mph /  8.0 km/h 14 mph /  22.5 km/h 92 % 0.01 in /  0.3 mm
23:12 45.5 °F /  7.5 °C 43.3 °F /  6.3 °C 29.7 in /  1007.3 hPa SW 6 mph /  9.7 km/h 14 mph /  22.5 km/h 92 % 0.01 in /  0.3 mm
23:17 45.3 °F /  7.4 °C 42.8 °F /  6.0 °C 29.7 in /  1007.3 hPa SSW 6 mph /  9.7 km/h 14 mph /  22.5 km/h 91 % 0.01 in /  0.3 mm
23:22 45.3 °F /  7.4 °C 42.8 °F /  6.0 °C 29.7 in /  1007.0 hPa SSW 7 mph /  11.3 km/h 14 mph /  22.5 km/h 91 % 0.01 in /  0.3 mm
23:27 45.3 °F /  7.4 °C 42.8 °F /  6.0 °C 29.7 in /  1007.0 hPa South 8 mph /  12.9 km/h 14 mph /  22.5 km/h 91 % 0 in /  0.0 mm
23:32 45.1 °F /  7.3 °C 42.6 °F /  5.9 °C 29.7 in /  1007.0 hPa SW 3 mph /  4.8 km/h 13 mph /  20.9 km/h 91 % 0 in /  0.0 mm
23:37 45 °F /  7.2 °C 42.4 °F /  5.8 °C 29.7 in /  1007.3 hPa SW 4 mph /  6.4 km/h 12 mph /  19.3 km/h 91 % 0 in /  0.0 mm
23:42 45 °F /  7.2 °C 42.4 °F /  5.8 °C 29.7 in /  1007.3 hPa SSW 6 mph /  9.7 km/h 12 mph /  19.3 km/h 91 % 0 in /  0.0 mm
23:52 44.8 °F /  7.1 °C 42.3 °F /  5.7 °C 29.7 in /  1007.3 hPa SSW 8 mph /  12.9 km/h 11 mph /  17.7 km/h 91 % 0 in /  0.0 mm
23:57 44.8 °F /  7.1 °C 42.3 °F /  5.7 °C 29.8 in /  1007.7 hPa SSW 8 mph /  12.9 km/h 10 mph /  16.1 km/h 91 % 0 in /  0.0 mm
Meteo18
Compliments of Weather Underground - 4 mb

Script developed by  Jim McMurry - jmcmurry@mwt.net Adapted for the template by  Wim van der Kuil - Leuven-Template.eu

You find our weather info also at:

European Weather Network

Weather Underground

Equipment we use:

Weather-station
Davis Vue

Weather-program
Meteohub

Weather-server
Raspberry PI 2 B+

Provider
1 and 1

Davis Vue

Meteohub

Raspberry PI 2 B+

1 and 1